createdAt,value
2022-07-29T00:01:58.841Z,27.95
2022-07-29T00:07:01.867Z,27.94
2022-07-29T00:12:04.967Z,27.95
2022-07-29T00:17:07.368Z,27.86
2022-07-29T00:22:10.137Z,28.14
2022-07-29T00:27:12.616Z,28.45
2022-07-29T00:32:15.189Z,28.55
2022-07-29T00:37:17.656Z,28.69
2022-07-29T00:42:20.085Z,28.49
2022-07-29T00:47:22.518Z,28.49
2022-07-29T00:52:24.933Z,28.51
2022-07-29T00:57:27.370Z,28.05
2022-07-29T01:02:29.815Z,28.01
2022-07-29T01:07:33.788Z,27.92
2022-07-29T01:12:38.838Z,27.67
2022-07-29T01:18:05.541Z,27.65
2022-07-29T01:23:08.516Z,27.64
2022-07-29T01:28:35.645Z,27.58
2022-07-29T01:33:53.094Z,27.48
2022-07-29T01:39:10.250Z,27.31
2022-07-29T01:44:19.315Z,27.53
2022-07-29T01:49:28.866Z,27.54
2022-07-29T01:54:40.365Z,27.58
2022-07-29T01:59:45.114Z,27.61
2022-07-29T02:04:50.321Z,27.49
2022-07-29T02:09:54.494Z,27.33
2022-07-29T02:15:01.171Z,27.23
2022-07-29T02:20:05.824Z,27.11
2022-07-29T02:25:13.941Z,27.07
2022-07-29T02:30:16.555Z,27.18
2022-07-29T02:35:20.137Z,27.13
2022-07-29T02:40:22.945Z,27.00
2022-07-29T02:45:29.965Z,26.92
2022-07-29T02:50:39.040Z,27.14
2022-07-29T02:56:04.665Z,26.99
2022-07-29T03:01:21.324Z,26.84
2022-07-29T03:06:38.345Z,26.79
2022-07-29T03:11:50.230Z,26.72
2022-07-29T03:16:54.233Z,26.73
2022-07-29T03:22:00.252Z,26.58
2022-07-29T03:27:04.557Z,26.77
2022-07-29T03:32:08.691Z,26.72
2022-07-29T03:37:11.573Z,26.75
2022-07-29T03:42:16.972Z,26.98
2022-07-29T03:47:43.693Z,26.95
2022-07-29T03:52:46.953Z,27.05
2022-07-29T03:57:51.077Z,27.12
2022-07-29T04:02:53.490Z,27.14
2022-07-29T04:07:56.020Z,27.28
2022-07-29T04:13:01.233Z,27.26
2022-07-29T04:18:03.810Z,27.08
2022-07-29T04:23:06.233Z,27.29
2022-07-29T04:28:09.979Z,27.48
2022-07-29T04:33:12.385Z,27.44
2022-07-29T04:38:15.891Z,27.51
2022-07-29T04:43:22.694Z,27.65
2022-07-29T04:48:28.676Z,27.64
2022-07-29T04:53:31.521Z,27.49
2022-07-29T04:58:36.716Z,27.66
2022-07-29T05:03:39.112Z,27.69
2022-07-29T05:08:41.951Z,27.72
2022-07-29T05:13:45.860Z,27.78
2022-07-29T05:18:49.489Z,27.75
2022-07-29T05:23:51.862Z,27.76
2022-07-29T05:28:55.375Z,28.26
2022-07-29T05:33:57.748Z,27.71
2022-07-29T05:39:00.131Z,27.97
2022-07-29T05:44:02.557Z,28.31
2022-07-29T05:49:05.163Z,28.07
2022-07-29T05:54:07.658Z,28.13
2022-07-29T05:59:18.199Z,28.19
2022-07-29T06:04:21.149Z,28.20
2022-07-29T06:09:24.295Z,28.38
2022-07-29T06:14:28.145Z,28.40
2022-07-29T06:19:30.628Z,28.69
2022-07-29T06:24:33.203Z,28.84
2022-07-29T06:29:35.704Z,29.04
2022-07-29T06:34:38.112Z,28.91
2022-07-29T06:39:40.530Z,29.32
2022-07-29T06:44:43.346Z,29.19
2022-07-29T06:49:46.747Z,29.41
2022-07-29T06:54:49.795Z,29.56
2022-07-29T06:59:52.106Z,29.51
2022-07-29T07:04:54.554Z,29.79
2022-07-29T07:09:56.928Z,29.70
2022-07-29T07:14:59.425Z,29.79
2022-07-29T07:20:01.800Z,29.95
2022-07-29T07:25:04.409Z,30.12
2022-07-29T07:30:08.208Z,30.11
2022-07-29T07:35:11.590Z,30.24
2022-07-29T07:40:18.479Z,30.29
2022-07-29T07:45:21.360Z,30.46
2022-07-29T07:50:23.752Z,30.46
2022-07-29T07:55:27.329Z,30.81
2022-07-29T08:00:29.792Z,30.77
2022-07-29T08:05:32.360Z,31.02
2022-07-29T08:10:54.427Z,31.07
2022-07-29T08:16:12.420Z,31.18
2022-07-29T08:21:17.491Z,31.33
2022-07-29T08:26:21.681Z,31.53
2022-07-29T08:31:24.094Z,31.30
2022-07-29T08:36:26.638Z,31.46
2022-07-29T08:41:29.108Z,31.67
2022-07-29T08:46:31.623Z,31.92
2022-07-29T08:51:49.383Z,32.02
2022-07-29T08:56:52.269Z,32.17
2022-07-29T09:02:01.288Z,32.20
2022-07-29T09:07:07.176Z,32.15
2022-07-29T09:12:12.893Z,32.32
2022-07-29T09:17:43.217Z,32.43
2022-07-29T09:22:48.697Z,32.36
2022-07-29T09:27:52.525Z,32.44
2022-07-29T09:33:04.393Z,32.34
2022-07-29T09:38:15.832Z,32.22
2022-07-29T09:43:18.219Z,32.21
2022-07-29T09:48:27.919Z,32.37
2022-07-29T09:53:38.072Z,32.83
2022-07-29T09:58:40.751Z,32.86
2022-07-29T10:03:53.595Z,33.07
2022-07-29T10:08:56.497Z,33.25
2022-07-29T10:13:59.648Z,33.23
2022-07-29T10:19:02.902Z,33.76
2022-07-29T10:24:06.591Z,33.98
2022-07-29T10:29:09.252Z,34.18
2022-07-29T10:34:31.351Z,34.20
2022-07-29T10:40:26.486Z,34.07
2022-07-29T10:45:31.570Z,34.31
2022-07-29T10:51:03.958Z,34.41
2022-07-29T10:56:25.293Z,34.56
2022-07-29T11:01:37.169Z,34.74
2022-07-29T11:07:06.139Z,34.76
2022-07-29T11:12:32.152Z,34.60
2022-07-29T11:17:59.475Z,34.78
2022-07-29T11:23:04.144Z,34.95
2022-07-29T11:28:18.475Z,35.02
2022-07-29T11:33:54.562Z,35.24
2022-07-29T11:39:36.279Z,35.19
2022-07-29T11:44:55.753Z,35.14
2022-07-29T11:49:59.952Z,35.65
2022-07-29T12:00:40.450Z,35.79
2022-07-29T12:05:47.921Z,35.86
2022-07-29T12:07:02.301Z,35.60
2022-07-29T12:11:21.192Z,35.99
2022-07-29T12:16:26.114Z,35.90
2022-07-29T12:21:54.046Z,35.77
2022-07-29T12:27:00.560Z,35.99
2022-07-29T12:32:04.637Z,36.38
2022-07-29T12:37:11.660Z,36.42
2022-07-29T12:42:18.372Z,36.45
2022-07-29T12:47:22.037Z,36.59
2022-07-29T12:52:32.479Z,36.72
2022-07-29T12:57:50.094Z,36.76
2022-07-29T13:03:00.287Z,36.93
2022-07-29T13:08:20.226Z,36.99
2022-07-29T13:13:24.257Z,37.17
2022-07-29T13:18:31.769Z,37.20
2022-07-29T13:23:38.448Z,37.23
2022-07-29T13:28:44.276Z,37.38
2022-07-29T13:33:46.786Z,37.60
2022-07-29T13:38:49.297Z,37.72
2022-07-29T13:43:51.624Z,37.57
2022-07-29T13:48:54.048Z,38.00
2022-07-29T13:53:56.452Z,37.96
2022-07-29T13:58:59.047Z,38.38
2022-07-29T14:04:01.582Z,38.62
2022-07-29T14:09:07.582Z,38.51
2022-07-29T14:14:11.667Z,39.10
2022-07-29T14:19:14.035Z,39.30
2022-07-29T14:24:21.464Z,39.09
2022-07-29T14:29:24.805Z,39.54
2022-07-29T14:34:41.045Z,39.45
2022-07-29T14:39:43.661Z,39.79
2022-07-29T14:44:46.096Z,40.00
2022-07-29T14:49:49.495Z,40.19
2022-07-29T14:54:51.901Z,40.01
2022-07-29T14:59:54.477Z,40.51
2022-07-29T15:04:57.152Z,40.73
2022-07-29T15:09:59.847Z,41.02
2022-07-29T15:15:02.246Z,41.12
2022-07-29T15:20:06.686Z,41.51
2022-07-29T15:25:09.612Z,41.98
2022-07-29T15:30:33.023Z,42.11
2022-07-29T15:35:40.125Z,42.28
2022-07-29T15:40:44.767Z,43.22
2022-07-29T15:46:07.265Z,43.24
2022-07-29T15:51:09.753Z,43.45
2022-07-29T15:56:12.419Z,43.56
2022-07-29T16:01:15.165Z,43.19
2022-07-29T16:06:18.388Z,43.12
2022-07-29T16:11:21.029Z,42.74
2022-07-29T16:16:23.729Z,42.47
2022-07-29T16:21:26.344Z,42.07
2022-07-29T16:26:29.215Z,41.70
2022-07-29T16:31:32.240Z,41.04
2022-07-29T16:36:34.673Z,40.66
2022-07-29T16:41:37.462Z,39.45
2022-07-29T16:46:41.465Z,38.93
2022-07-29T16:51:44.420Z,38.40
2022-07-29T16:56:46.773Z,37.61
2022-07-29T17:01:49.623Z,36.78
2022-07-29T17:06:52.162Z,35.99
2022-07-29T17:11:55.309Z,35.40
2022-07-29T17:17:03.371Z,35.29
2022-07-29T17:22:14.040Z,35.14
2022-07-29T17:27:21.060Z,34.67
2022-07-29T17:32:23.756Z,34.53
2022-07-29T17:37:26.107Z,34.16
2022-07-29T17:42:28.801Z,34.10
2022-07-29T17:47:31.143Z,33.86
2022-07-29T17:52:33.583Z,33.53
2022-07-29T17:57:36.346Z,33.61
2022-07-29T18:02:38.850Z,33.39
2022-07-29T18:07:41.557Z,33.21
2022-07-29T18:12:43.963Z,32.89
2022-07-29T18:17:57.824Z,32.64
2022-07-29T18:23:00.883Z,32.83
2022-07-29T18:28:04.936Z,32.83
2022-07-29T18:33:22.172Z,32.68
2022-07-29T18:38:24.924Z,32.51
2022-07-29T18:43:27.344Z,32.41
2022-07-29T18:48:29.708Z,32.05
2022-07-29T18:53:32.106Z,32.14
2022-07-29T18:58:39.859Z,32.09
2022-07-29T19:03:42.343Z,31.94
2022-07-29T19:08:44.808Z,31.77
2022-07-29T19:13:47.558Z,31.71
2022-07-29T19:18:50.013Z,31.26
2022-07-29T19:24:00.721Z,31.81
2022-07-29T19:29:10.080Z,31.64
2022-07-29T19:34:12.772Z,31.29
2022-07-29T19:39:16.035Z,31.41
2022-07-29T19:44:18.694Z,30.56
2022-07-29T19:49:21.342Z,30.42
2022-07-29T19:54:24.620Z,30.38
2022-07-29T19:59:29.540Z,30.50
2022-07-29T20:04:32.253Z,30.34
2022-07-29T20:09:35.857Z,29.90
2022-07-29T20:14:42.245Z,30.82
2022-07-29T20:19:45.081Z,29.75
2022-07-29T20:24:56.393Z,30.58
2022-07-29T20:29:58.932Z,30.33
2022-07-29T20:35:01.482Z,30.14
2022-07-29T20:40:05.227Z,29.68
2022-07-29T20:45:18.155Z,29.68
2022-07-29T20:50:24.189Z,29.14
2022-07-29T20:55:27.314Z,30.01
2022-07-29T21:00:30.011Z,29.59
2022-07-29T21:05:33.419Z,29.17
2022-07-29T21:10:35.984Z,29.40
2022-07-29T21:15:38.774Z,28.88
2022-07-29T21:20:41.332Z,29.09
2022-07-29T21:25:44.134Z,28.90
2022-07-29T21:30:46.498Z,29.00
2022-07-29T21:41:13.350Z,28.39
2022-07-29T21:46:17.414Z,28.56
2022-07-29T21:51:19.915Z,28.93
2022-07-29T21:56:23.613Z,28.49
2022-07-29T22:01:39.603Z,28.28
2022-07-29T22:06:42.171Z,28.58
2022-07-29T22:11:44.722Z,28.52
2022-07-29T22:16:48.269Z,28.04
2022-07-29T22:21:50.940Z,28.54
2022-07-29T22:26:54.434Z,27.97
2022-07-29T22:31:56.863Z,27.46
2022-07-29T22:36:59.948Z,27.33
2022-07-29T22:42:05.641Z,28.43
2022-07-29T22:47:08.109Z,27.49
2022-07-29T22:52:10.902Z,27.47
2022-07-29T22:57:13.294Z,27.51
2022-07-29T23:02:15.846Z,28.17
2022-07-29T23:07:20.272Z,28.16
2022-07-29T23:12:22.741Z,27.92
2022-07-29T23:17:25.353Z,27.86
2022-07-29T23:22:27.797Z,27.34
2022-07-29T23:27:30.522Z,27.62
2022-07-29T23:32:32.986Z,27.23
2022-07-29T23:37:35.825Z,26.98
2022-07-29T23:42:38.420Z,27.60
2022-07-29T23:47:41.810Z,27.64
2022-07-29T23:52:46.821Z,27.47
2022-07-29T23:57:49.697Z,27.49
